Time;durP1;ratioP1;P1;durP2;ratioP2;P2;SDS_P1;SDS_P2;PMS_P1;PMS_P2;Temp;Humidity;BMP_temperature;BMP_pressure;BME280_temperature;BME280_humidity;BME280_pressure;Samples;Min_cycle;Max_cycle;Signal;HPM_P1;HPM_P2
2022/11/03 00:00:11;;;;;;;113.60;71.75;;;;;;;22.02;63.75;98640.03;4884376;29;20148;-62
2022/11/03 00:03:00;;;;;;;119.00;72.35;;;;;;;21.90;64.52;98645.09;4871955;29;20124;-62
2022/11/03 00:08:50;;;;;;;126.72;73.20;;;;;;;21.70;66.22;98643.38;4890283;29;20052;-62
2022/11/03 00:11:34;;;;;;;126.07;72.00;;;;;;;21.76;66.01;98649.59;4890835;29;20065;-62
2022/11/03 00:14:24;;;;;;;125.63;72.75;;;;;;;21.75;66.03;98648.81;4881645;29;20060;-62
2022/11/03 00:17:13;;;;;;;118.53;70.10;;;;;;;21.76;65.56;98655.88;4884423;29;20069;-61
2022/11/03 00:20:02;;;;;;;116.88;71.82;;;;;;;21.63;66.28;98646.47;4868896;29;20091;-62
2022/11/03 00:22:57;;;;;;;126.28;73.90;;;;;;;21.61;66.63;98648.66;4889235;29;20120;-62
2022/11/03 00:25:33;;;;;;;126.82;76.18;;;;;;;21.62;66.40;98658.47;4864307;29;20456;-62
2022/11/03 00:28:27;;;;;;;127.28;76.03;;;;;;;21.57;67.28;98654.97;4870969;29;20059;-62
2022/11/03 00:31:10;;;;;;;128.27;76.82;;;;;;;21.61;66.86;98667.78;4889495;29;20061;-63
2022/11/03 00:33:59;;;;;;;126.07;74.43;;;;;;;21.59;66.75;98672.72;4853126;29;20054;-62
2022/11/03 00:36:47;;;;;;;130.98;76.22;;;;;;;21.50;67.23;98675.25;4872319;29;20060;-62
2022/11/03 00:39:36;;;;;;;125.50;75.70;;;;;;;21.50;67.90;98677.19;4876908;29;20057;-62
2022/11/03 00:42:33;;;;;;;127.68;75.50;;;;;;;21.47;68.24;98681.28;4872364;29;20140;-63
2022/11/03 00:45:09;;;;;;;141.25;79.15;;;;;;;21.42;68.23;98675.84;4873919;29;20044;-63
2022/11/03 00:50:58;;;;;;;126.88;74.82;;;;;;;21.47;67.47;98681.28;4874375;29;20041;-62
2022/11/03 00:53:48;;;;;;;119.93;73.55;;;;;;;21.46;68.75;98689.78;4882086;29;20689;-62
2022/11/03 00:56:39;;;;;;;128.93;75.60;;;;;;;21.36;68.90;98696.06;4875651;29;20057;-62
2022/11/03 00:59:35;;;;;;;134.05;77.15;;;;;;;21.26;68.89;98688.78;4875407;29;20065;-62
2022/11/03 01:02:11;;;;;;;119.50;76.38;;;;;;;21.31;69.10;98693.41;4873914;29;20060;-63
2022/11/03 01:08:08;;;;;;;139.48;75.13;;;;;;;21.50;68.20;98701.75;4885039;29;20064;-62
2022/11/03 01:13:57;;;;;;;125.82;75.90;;;;;;;21.42;69.49;98707.78;4877332;29;20056;-63
2022/11/03 01:16:46;;;;;;;128.60;74.88;;;;;;;21.38;69.54;98703.97;4890604;29;20508;-63
2022/11/03 01:19:28;;;;;;;120.05;73.50;;;;;;;21.36;69.50;98707.00;4874288;29;20056;-62
2022/11/03 01:22:18;;;;;;;123.07;73.38;;;;;;;21.38;68.83;98714.91;4881943;29;20036;-62
2022/11/03 01:25:07;;;;;;;124.85;75.07;;;;;;;21.44;68.58;98713.81;4886079;29;20140;-62
2022/11/03 01:27:56;;;;;;;127.47;73.55;;;;;;;21.39;68.84;98722.81;4887594;29;20497;-63
2022/11/03 01:30:38;;;;;;;124.60;75.25;;;;;;;21.37;68.86;98719.56;4891961;29;20063;-63
2022/11/03 01:33:34;;;;;;;131.25;74.38;;;;;;;21.42;69.03;98726.88;4884608;29;20395;-63
2022/11/03 01:36:10;;;;;;;136.90;75.63;;;;;;;21.41;68.51;98720.63;4873061;29;20124;-63
2022/11/03 01:38:59;;;;;;;120.75;73.65;;;;;;;21.59;67.34;98730.06;4872799;29;20061;-63
2022/11/03 01:41:51;;;;;;;119.82;72.95;;;;;;;21.56;68.19;98733.38;4879339;29;20052;-63
2022/11/03 01:44:47;;;;;;;124.38;74.07;;;;;;;21.52;67.83;98740.50;4872732;29;20176;-62
2022/11/03 01:47:38;;;;;;;127.75;73.80;;;;;;;21.50;68.59;98748.16;4871369;29;20113;-62
2022/11/03 01:50:29;;;;;;;120.40;73.85;;;;;;;21.49;68.51;98750.06;4873168;29;20820;-61
2022/11/03 01:53:11;;;;;;;118.72;71.85;;;;;;;21.47;68.46;98754.19;4872439;29;20068;-61
2022/11/03 01:56:02;;;;;;;121.22;73.10;;;;;;;21.63;68.17;98755.72;4869990;29;20041;-61
2022/11/03 01:58:48;;;;;;;129.88;72.03;;;;;;;21.68;67.67;98758.38;4871309;29;20532;-62
2022/11/03 02:01:36;;;;;;;132.00;73.27;;;;;;;21.78;67.81;98757.50;4880413;29;20052;-62
2022/11/03 02:04:31;;;;;;;133.20;71.28;;;;;;;21.81;67.06;98776.03;4891203;29;20370;-62
2022/11/03 02:07:42;;;;;;;123.03;71.63;;;;;;;21.96;66.54;98785.22;4880893;29;20129;-62
2022/11/03 02:10:31;;;;;;;133.73;72.45;;;;;;;22.04;66.14;98788.13;4877635;29;20053;-62
2022/11/03 02:13:25;;;;;;;126.55;70.20;;;;;;;22.15;67.02;98782.56;4870158;29;20041;-61
2022/11/03 02:16:13;;;;;;;134.15;78.38;;;;;;;22.09;66.93;98799.00;4872726;29;20060;-61
2022/11/03 02:18:58;;;;;;;129.98;75.00;;;;;;;22.16;67.99;98790.47;4876321;29;20755;-63
2022/11/03 02:22:33;;;;;;;123.88;74.60;;;;;;;22.44;65.77;98788.84;4890036;29;20045;-61
2022/11/03 02:25:40;;;;;;;140.82;76.53;;;;;;;22.49;66.12;98793.47;4889290;29;20131;-62
2022/11/03 02:28:20;;;;;;;135.43;77.00;;;;;;;22.63;67.46;98791.63;4888033;29;20056;-63
2022/11/03 02:31:24;;;;;;;134.43;76.53;;;;;;;22.79;66.40;98799.66;4876661;29;20057;-62
2022/11/03 02:34:52;;;;;;;139.13;78.03;;;;;;;23.00;65.86;98800.22;4891142;29;20515;-62
2022/11/03 02:37:51;;;;;;;;;;;;;;;23.06;66.00;98810.00;4877431;29;20092;-63
2022/11/03 02:40:55;;;;;;;131.55;76.13;;;;;;;23.04;66.71;98814.97;4872875;29;20441;-63
2022/11/03 02:43:46;;;;;;;141.65;78.82;;;;;;;23.15;64.89;98821.94;4884338;29;20508;-63
2022/11/03 02:46:37;;;;;;;138.52;80.00;;;;;;;23.23;65.25;98826.78;4875667;29;20043;-62
2022/11/03 02:49:20;;;;;;;139.95;78.32;;;;;;;23.32;66.18;98820.63;4873815;29;20547;-63
2022/11/03 02:52:11;;;;;;;148.98;83.88;;;;;;;23.64;64.08;98826.19;4871409;29;20589;-63
2022/11/03 02:54:56;;;;;;;165.98;89.80;;;;;;;23.80;62.78;98831.44;4871877;29;20894;-63
2022/11/03 02:58:02;;;;;;;162.95;87.47;;;;;;;23.86;63.26;98835.72;4882235;29;20707;-62
2022/11/03 03:00:57;;;;;;;165.55;90.88;;;;;;;24.10;64.22;98834.81;4872256;29;20821;-62
2022/11/03 03:03:51;;;;;;;162.02;88.97;;;;;;;24.30;61.71;98839.13;4880372;29;20139;-62
2022/11/03 03:06:52;;;;;;;161.43;91.45;;;;;;;24.41;62.42;98852.34;4871821;29;20477;-62
2022/11/03 03:09:45;;;;;;;155.77;91.32;;;;;;;24.62;61.59;98862.97;4885215;29;20061;-62
2022/11/03 03:12:45;;;;;;;166.38;88.68;;;;;;;24.97;59.22;98857.91;4872383;29;20537;-62
2022/11/03 03:15:36;;;;;;;154.02;85.68;;;;;;;25.00;59.88;98871.84;4884036;29;20448;-62
2022/11/03 03:18:50;;;;;;;157.02;84.35;;;;;;;25.08;59.48;98866.75;4883256;29;20513;-62
2022/11/03 03:21:48;;;;;;;152.85;81.85;;;;;;;25.27;58.89;98872.16;4863428;29;20057;-62
2022/11/03 03:24:46;;;;;;;160.65;85.30;;;;;;;25.38;58.31;98868.06;4872374;29;20048;-62
2022/11/03 03:27:39;;;;;;;171.02;85.18;;;;;;;25.46;58.04;98864.59;4874713;29;20077;-62
2022/11/03 03:30:22;;;;;;;142.57;81.80;;;;;;;25.50;57.43;98882.06;4879090;29;20060;-61
2022/11/03 03:33:13;;;;;;;141.23;77.55;;;;;;;25.46;58.14;98886.56;4871519;29;20569;-62
2022/11/03 03:35:58;;;;;;;137.68;78.63;;;;;;;25.54;57.49;98888.56;4871302;29;20086;-63
2022/11/03 03:38:54;;;;;;;129.23;74.25;;;;;;;25.71;56.71;98884.38;4872042;29;20053;-63
2022/11/03 03:41:38;;;;;;;131.60;72.70;;;;;;;25.77;55.82;98888.63;4876385;29;20147;-63
2022/11/03 03:44:27;;;;;;;138.98;74.43;;;;;;;25.85;57.81;98887.88;4873427;29;20053;-61
2022/11/03 03:47:16;;;;;;;132.67;73.43;;;;;;;26.22;55.99;98891.44;4870345;29;20137;-63
2022/11/03 03:50:07;;;;;;;131.38;71.50;;;;;;;26.21;54.41;98889.78;4873774;29;20437;-63
2022/11/03 03:52:53;;;;;;;121.97;68.82;;;;;;;26.34;51.48;98894.41;4886267;29;20048;-63
2022/11/03 03:55:45;;;;;;;117.60;65.93;;;;;;;26.47;50.57;98900.97;4879764;29;20052;-62
2022/11/03 03:58:27;;;;;;;113.72;65.15;;;;;;;26.95;49.54;98902.22;4889109;29;20076;-61
2022/11/03 04:01:17;;;;;;;103.50;64.15;;;;;;;27.01;48.69;98889.91;4874232;29;20545;-61
2022/11/03 04:03:59;;;;;;;117.10;64.10;;;;;;;27.38;48.59;98893.31;4870669;29;20053;-62
2022/11/03 04:06:48;;;;;;;109.28;65.65;;;;;;;27.42;48.36;98899.81;4870782;29;20716;-62
2022/11/03 04:09:30;;;;;;;106.70;65.55;;;;;;;27.51;47.25;98895.09;4869368;29;20540;-61
2022/11/03 04:24:35;;;;;;;112.65;62.63;;;;;;;28.89;47.10;98898.06;4874185;29;20060;-61
2022/11/03 04:27:30;;;;;;;117.32;65.60;;;;;;;29.08;46.47;98896.84;4877780;29;20052;-61
2022/11/03 04:30:23;;;;;;;112.43;64.35;;;;;;;29.29;45.29;98888.63;4874846;29;20141;-61
2022/11/03 04:33:06;;;;;;;112.22;63.20;;;;;;;29.63;45.09;98889.53;4874987;29;20376;-61
2022/11/03 04:35:58;;;;;;;106.72;63.35;;;;;;;29.41;43.46;98885.16;4851864;29;20056;-61
2022/11/03 04:38:40;;;;;;;112.45;65.43;;;;;;;29.68;45.48;98890.16;4872739;29;20057;-61
2022/11/03 04:41:38;;;;;;;122.00;63.72;;;;;;;29.08;43.73;98889.38;4883410;29;20366;-61
2022/11/03 04:44:29;;;;;;;109.95;64.93;;;;;;;29.64;44.20;98889.22;4875616;29;21014;-62
2022/11/03 04:47:20;;;;;;;111.07;63.20;;;;;;;29.68;43.02;98892.91;4874345;29;20036;-61
2022/11/03 04:50:14;;;;;;;110.60;63.15;;;;;;;29.72;44.27;98884.75;4875922;29;20153;-61
2022/11/03 04:53:05;;;;;;;121.88;65.97;;;;;;;29.62;44.54;98894.28;4874188;29;20052;-63
2022/11/03 04:55:52;;;;;;;120.57;63.90;;;;;;;30.11;44.31;98893.72;4872987;29;20073;-62
2022/11/03 04:58:47;;;;;;;117.20;66.50;;;;;;;29.93;42.36;98883.97;4888440;29;20401;-61
2022/11/03 05:01:29;;;;;;;117.38;65.55;;;;;;;30.26;40.70;98884.78;4874791;29;20045;-62
2022/11/03 05:04:23;;;;;;;112.95;62.58;;;;;;;30.76;42.53;98882.16;4873348;29;20060;-61
2022/11/03 05:07:34;;;;;;;109.00;62.03;;;;;;;30.67;42.01;98887.81;4872349;29;20061;-62
2022/11/03 05:10:21;;;;;;;109.10;64.30;;;;;;;30.42;41.26;98879.47;4876081;29;20048;-61
2022/11/03 05:13:16;;;;;;;114.78;68.05;;;;;;;30.40;40.29;98879.00;4873760;29;20041;-62
2022/11/03 05:16:12;;;;;;;118.65;71.78;;;;;;;30.48;40.79;98876.44;4880534;29;20049;-66
2022/11/03 05:18:54;;;;;;;127.32;73.53;;;;;;;30.64;41.30;98872.69;4863712;29;20063;-64
2022/11/03 05:21:43;;;;;;;126.25;72.68;;;;;;;30.60;39.21;98862.66;4886254;29;20064;-64
2022/11/03 05:24:26;;;;;;;131.75;72.07;;;;;;;30.54;38.70;98862.06;4881233;29;20049;-65
2022/11/03 05:27:29;;;;;;;121.35;72.90;;;;;;;30.38;38.41;98861.91;4873820;29;20048;-64
2022/11/03 05:30:25;;;;;;;123.07;73.25;;;;;;;30.55;39.60;98860.09;4869595;29;20352;-62
2022/11/03 05:33:01;;;;;;;119.53;72.10;;;;;;;30.72;38.63;98857.09;4873193;29;20434;-63
2022/11/03 05:35:49;;;;;;;126.57;74.15;;;;;;;30.41;39.02;98847.38;4872842;29;20055;-65
2022/11/03 05:38:40;;;;;;;128.48;69.82;;;;;;;30.26;38.96;98848.00;4874375;29;20059;-64
2022/11/03 05:41:36;;;;;;;121.95;71.28;;;;;;;30.53;38.83;98843.81;4882981;29;20120;-64
2022/11/03 05:44:36;;;;;;;115.15;69.22;;;;;;;30.78;38.72;98841.06;4875450;29;20151;-64
2022/11/03 05:47:34;;;;;;;114.10;66.38;;;;;;;31.20;40.92;98849.16;4873760;29;20101;-64
2022/11/03 05:50:23;;;;;;;114.43;64.53;;;;;;;31.23;41.00;98838.19;4891639;29;20063;-66
2022/11/03 05:53:25;;;;;;;103.00;60.45;;;;;;;31.06;40.33;98834.88;4880355;29;20060;-65
2022/11/03 05:56:04;;;;;;;90.05;53.42;;;;;;;30.53;36.64;98838.28;4872573;29;20049;-60
2022/11/03 05:58:56;;;;;;;90.18;53.70;;;;;;;30.56;37.13;98823.75;4871999;29;20064;-66
2022/11/03 06:01:45;;;;;;;84.00;47.60;;;;;;;30.49;36.28;98826.28;4871436;29;20057;-66
2022/11/03 06:04:43;;;;;;;75.05;45.42;;;;;;;30.60;37.13;98827.44;4873011;29;20075;-64
2022/11/03 06:07:30;;;;;;;71.05;40.67;;;;;;;30.94;36.08;98822.63;4874954;29;20144;-65
2022/11/03 06:10:31;;;;;;;63.15;38.33;;;;;;;30.72;35.73;98829.41;4873031;29;20061;-66
2022/11/03 06:13:18;;;;;;;;;;;;;;;31.19;35.41;98811.53;4879937;29;20044;-62
2022/11/03 06:16:31;;;;;;;60.83;36.75;;;;;;;31.12;34.75;98808.53;4876058;29;19928;-63
2022/11/03 06:19:36;;;;;;;59.15;36.90;;;;;;;31.21;36.40;98800.88;4870863;29;20053;-66
2022/11/03 06:22:44;;;;;;;65.65;37.22;;;;;;;31.14;35.91;98795.91;4871812;29;20128;-67
2022/11/03 06:25:40;;;;;;;69.43;35.42;;;;;;;31.31;34.79;98788.50;4884191;29;20063;-67
2022/11/03 06:28:41;;;;;;;47.53;30.95;;;;;;;31.16;33.70;98790.03;4873618;29;20080;-65
2022/11/03 06:31:29;;;;;;;63.42;32.50;;;;;;;31.34;33.82;98788.63;4873296;29;20064;-66
2022/11/03 06:34:39;;;;;;;55.65;30.58;;;;;;;31.34;32.57;98788.63;4884542;29;20806;-65
2022/11/03 06:37:19;;;;;;;64.93;32.65;;;;;;;31.65;34.52;98787.16;4888610;29;20052;-66
2022/11/03 06:40:14;;;;;;;64.55;33.47;;;;;;;31.79;35.33;98775.63;4872749;29;20489;-64
2022/11/03 06:43:24;;;;;;;54.65;34.88;;;;;;;31.96;34.54;98774.50;4884098;29;20048;-66
2022/11/03 06:46:08;;;;;;;62.45;33.42;;;;;;;31.41;34.24;98768.59;4891914;29;20544;-65
2022/11/03 06:49:07;;;;;;;58.28;29.02;;;;;;;31.31;34.57;98767.13;4876444;29;20490;-64
2022/11/03 06:51:43;;;;;;;56.93;25.87;;;;;;;31.32;33.56;98763.19;4873068;29;20064;-64
2022/11/03 06:54:39;;;;;;;50.35;28.95;;;;;;;31.05;33.60;98758.41;4872419;29;20609;-64
2022/11/03 06:57:18;;;;;;;52.45;27.77;;;;;;;31.01;34.22;98756.34;4876062;29;20054;-64
2022/11/03 07:00:29;;;;;;;47.28;27.33;;;;;;;31.43;34.17;98752.41;4892138;29;20131;-64
2022/11/03 07:03:32;;;;;;;51.38;27.27;;;;;;;31.38;33.17;98745.16;4883575;29;20123;-65
2022/11/03 07:06:28;;;;;;;53.72;28.50;;;;;;;31.71;35.09;98741.34;4890038;29;20155;-65
2022/11/03 07:09:08;;;;;;;49.38;25.25;;;;;;;31.76;33.30;98731.97;4875712;29;20052;-65
2022/11/03 07:11:59;;;;;;;40.97;22.70;;;;;;;31.82;33.04;98726.97;4874255;29;20055;-64
2022/11/03 07:14:48;;;;;;;48.95;24.13;;;;;;;31.80;37.87;98725.34;4872302;29;20072;-64
2022/11/03 07:17:38;;;;;;;60.40;26.05;;;;;;;32.06;34.80;98721.25;4871090;29;20057;-63
2022/11/03 07:20:21;;;;;;;42.47;25.58;;;;;;;31.92;33.49;98712.56;4870863;29;20533;-64
2022/11/03 07:23:16;;;;;;;51.83;26.10;;;;;;;31.94;34.63;98711.03;4873058;29;20060;-64
2022/11/03 07:26:02;;;;;;;38.50;21.52;;;;;;;31.85;32.95;98704.84;4881551;29;20116;-65
2022/11/03 07:28:51;;;;;;;36.08;20.52;;;;;;;31.82;33.38;98700.00;4886518;29;20056;-65
2022/11/03 07:31:33;;;;;;;41.25;20.73;;;;;;;32.10;35.06;98691.66;4879567;29;20072;-64
2022/11/03 07:34:26;;;;;;;39.92;20.15;;;;;;;31.89;32.68;98685.50;4889442;29;20168;-64
2022/11/03 07:37:23;;;;;;;39.13;20.05;;;;;;;31.88;33.88;98684.69;4867905;29;20059;-63
2022/11/03 07:40:13;;;;;;;51.83;20.65;;;;;;;31.74;33.49;98676.81;4891090;29;20056;-63
2022/11/03 07:43:21;;;;;;;38.83;19.45;;;;;;;31.93;34.08;98669.75;4864055;29;20120;-64
2022/11/03 07:46:01;;;;;;;35.70;18.05;;;;;;;31.96;36.01;98672.63;4872634;29;20461;-63
2022/11/03 07:49:08;;;;;;;33.42;17.65;;;;;;;31.69;33.31;98660.44;4872834;29;20104;-62
2022/11/03 07:51:47;;;;;;;37.07;17.57;;;;;;;31.38;35.87;98650.88;4884566;29;20067;-61
2022/11/03 07:54:35;;;;;;;44.72;18.33;;;;;;;31.43;33.23;98647.00;4889236;29;20443;-62
2022/11/03 07:57:31;;;;;;;40.88;17.73;;;;;;;31.68;34.94;98652.44;4872444;29;20611;-62
2022/11/03 08:00:21;;;;;;;40.70;17.63;;;;;;;31.90;32.83;98637.97;4875366;29;20060;-62
2022/11/03 08:03:10;;;;;;;31.48;17.08;;;;;;;31.90;34.66;98631.63;4890325;29;20061;-62
2022/11/03 08:05:59;;;;;;;35.58;16.63;;;;;;;31.66;34.22;98627.84;4871532;29;20063;-62
2022/11/03 08:08:45;;;;;;;33.00;16.85;;;;;;;31.35;35.15;98629.38;4847617;29;20049;-62
2022/11/03 08:11:41;;;;;;;42.90;17.38;;;;;;;31.54;33.33;98625.16;4872081;29;20060;-62
2022/11/03 08:14:18;;;;;;;41.25;17.30;;;;;;;31.60;35.94;98623.72;4870817;29;20053;-62
2022/11/03 08:17:06;;;;;;;43.95;17.98;;;;;;;31.85;33.34;98618.00;4889518;29;20572;-61
2022/11/03 08:19:48;;;;;;;34.15;16.70;;;;;;;31.36;35.13;98614.38;4862187;29;20045;-61
2022/11/03 08:22:37;;;;;;;30.42;17.52;;;;;;;31.25;34.98;98613.25;4859145;29;20128;-60
2022/11/03 08:25:25;;;;;;;32.35;17.83;;;;;;;31.42;34.79;98612.13;4855380;29;20078;-60
2022/11/03 08:28:15;;;;;;;36.33;17.80;;;;;;;31.57;35.50;98613.34;4873733;29;20049;-60
2022/11/03 08:31:03;;;;;;;37.63;16.83;;;;;;;31.52;35.60;98605.28;4869145;29;20548;-60
2022/11/03 08:33:53;;;;;;;37.38;18.13;;;;;;;31.30;37.08;98596.38;4870012;29;20049;-60
2022/11/03 08:36:36;;;;;;;33.75;18.33;;;;;;;31.44;35.50;98592.38;4870159;29;20049;-60
2022/11/03 08:39:24;;;;;;;27.85;17.02;;;;;;;31.64;34.26;98587.75;4870714;29;20105;-61
2022/11/03 08:42:13;;;;;;;33.70;17.02;;;;;;;31.56;34.07;98582.00;4871913;29;20056;-60
2022/11/03 08:45:02;;;;;;;36.17;17.98;;;;;;;31.12;35.79;98582.03;4872129;29;20057;-60
2022/11/03 08:47:52;;;;;;;32.90;19.20;;;;;;;31.20;34.73;98577.47;4871675;29;20048;-60
2022/11/03 08:50:35;;;;;;;45.83;17.63;;;;;;;31.32;34.36;98571.88;4882215;29;20049;-61
2022/11/03 08:53:25;;;;;;;37.33;17.17;;;;;;;31.51;32.39;98565.66;4869036;29;20588;-61
2022/11/03 08:56:09;;;;;;;32.38;16.45;;;;;;;31.56;34.69;98562.59;4867616;29;20053;-63
2022/11/03 08:59:03;;;;;;;29.95;16.95;;;;;;;31.17;34.66;98551.28;4870218;29;20900;-62
2022/11/03 09:01:51;;;;;;;32.60;17.13;;;;;;;31.50;34.18;98557.69;4879471;29;20117;-63
2022/11/03 09:04:41;;;;;;;40.22;18.23;;;;;;;31.15;33.33;98552.81;4871626;29;20057;-62
2022/11/03 09:07:26;;;;;;;32.50;16.98;;;;;;;31.61;33.85;98556.00;4860474;29;20061;-63
2022/11/03 09:10:37;;;;;;;33.92;17.50;;;;;;;31.62;33.53;98552.03;4872045;29;20074;-63
2022/11/03 09:13:23;;;;;;;37.15;18.08;;;;;;;31.57;32.55;98549.56;4872820;29;20056;-63
2022/11/03 09:16:13;;;;;;;52.40;19.30;;;;;;;31.71;31.97;98554.66;4861640;29;20168;-62
2022/11/03 09:18:57;;;;;;;31.08;18.48;;;;;;;31.71;32.48;98554.66;4864916;29;20049;-63
2022/11/03 09:21:47;;;;;;;36.22;18.98;;;;;;;31.68;33.18;98549.81;4873390;29;20494;-63
2022/11/03 09:24:31;;;;;;;37.30;18.00;;;;;;;31.50;33.93;98543.81;4876782;29;20827;-63
2022/11/03 09:27:26;;;;;;;40.50;18.10;;;;;;;31.47;32.70;98542.59;4875873;29;20067;-64
2022/11/03 09:30:10;;;;;;;44.63;17.70;;;;;;;31.44;32.75;98542.47;4873515;29;20076;-63
2022/11/03 09:33:00;;;;;;;35.13;17.80;;;;;;;31.53;32.10;98540.34;4887447;29;20068;-65
2022/11/03 09:35:46;;;;;;;35.00;16.90;;;;;;;31.59;32.02;98527.81;4879427;29;20056;-63
2022/11/03 09:38:37;;;;;;;34.28;16.23;;;;;;;31.61;33.50;98534.59;4873227;29;20052;-61
2022/11/03 09:41:21;;;;;;;30.48;16.45;;;;;;;31.50;32.82;98536.31;4873218;29;20044;-62
2022/11/03 09:44:40;;;;;;;31.33;15.93;;;;;;;31.52;33.48;98533.97;4885698;29;20048;-63
2022/11/03 09:47:28;;;;;;;38.05;16.27;;;;;;;31.49;33.70;98531.09;4875531;29;20053;-63
2022/11/03 09:50:27;;;;;;;26.33;15.23;;;;;;;31.58;31.76;98532.53;4866382;29;20144;-64
2022/11/03 09:53:05;;;;;;;29.70;15.52;;;;;;;31.50;30.02;98524.41;4878926;29;20053;-61
2022/11/03 09:56:05;;;;;;;32.63;15.32;;;;;;;31.15;31.95;98527.84;4877500;29;20049;-62
2022/11/03 09:59:04;;;;;;;31.65;16.52;;;;;;;31.28;32.53;98526.63;4872964;29;20057;-62
2022/11/03 10:01:44;;;;;;;33.88;16.02;;;;;;;31.33;32.31;98517.22;4873673;29;20057;-62
2022/11/03 10:04:38;;;;;;;29.83;15.25;;;;;;;31.19;33.26;98520.44;4877632;29;20061;-62
2022/11/03 10:07:32;;;;;;;;;;;;;;;31.29;32.67;98514.34;4877081;29;20059;-62
2022/11/03 10:10:20;;;;;;;30.02;15.55;;;;;;;31.10;34.37;98519.78;4887425;29;20015;-62
2022/11/03 10:13:12;;;;;;;44.13;17.08;;;;;;;31.09;36.10;98519.00;4880894;29;20056;-62
2022/11/03 10:16:05;;;;;;;36.65;16.25;;;;;;;31.05;36.78;98514.50;4875754;29;20061;-62
2022/11/03 10:19:04;;;;;;;47.05;18.95;;;;;;;30.98;36.61;98515.13;4874504;29;20074;-62
2022/11/03 10:21:53;;;;;;;47.60;17.02;;;;;;;31.00;36.74;98516.38;4872442;29;20141;-62
2022/11/03 10:24:45;;;;;;;37.50;15.75;;;;;;;30.89;37.27;98518.00;4873595;29;20581;-63
2022/11/03 10:27:43;;;;;;;44.63;16.80;;;;;;;30.88;36.65;98510.88;4878570;29;20112;-62
2022/11/03 10:30:21;;;;;;;31.08;14.80;;;;;;;30.81;36.57;98502.38;4875407;29;20060;-62
2022/11/03 10:34:03;;;;;;;32.67;15.90;;;;;;;30.77;37.40;98501.47;4854428;29;20435;-62
2022/11/03 10:36:47;;;;;;;35.90;15.85;;;;;;;30.56;38.99;98499.69;4883557;29;20372;-62
2022/11/03 10:39:36;;;;;;;43.38;15.30;;;;;;;30.50;39.62;98501.13;4858114;29;20057;-62
2022/11/03 10:42:37;;;;;;;35.85;15.38;;;;;;;30.39;39.88;98500.78;4872159;29;20065;-62
2022/11/03 10:45:31;;;;;;;43.67;17.73;;;;;;;30.30;39.47;98502.06;4873733;29;20055;-62
2022/11/03 10:48:20;;;;;;;38.10;15.35;;;;;;;30.16;40.16;98503.25;4874787;29;20061;-62
2022/11/03 10:51:12;;;;;;;36.45;15.43;;;;;;;30.06;41.14;98503.75;4871808;29;20056;-63
2022/11/03 10:53:55;;;;;;;37.40;15.88;;;;;;;30.00;41.71;98505.13;4875239;29;20069;-63
2022/11/03 10:56:48;;;;;;;40.50;16.63;;;;;;;29.90;43.25;98511.94;4881495;29;20491;-62
2022/11/03 10:59:40;;;;;;;41.10;15.57;;;;;;;29.84;43.26;98508.59;4882621;29;20553;-63
2022/11/03 11:02:40;;;;;;;32.90;15.68;;;;;;;29.63;45.41;98502.38;4871888;29;20567;-64
2022/11/03 11:05:21;;;;;;;28.90;16.17;;;;;;;29.47;45.81;98510.56;4874936;29;20060;-63
2022/11/03 11:08:25;;;;;;;31.42;15.65;;;;;;;29.42;45.08;98514.34;4872185;29;20817;-63
2022/11/03 11:11:06;;;;;;;28.10;15.65;;;;;;;29.35;44.33;98513.28;4875449;29;20047;-61
2022/11/03 11:14:35;;;;;;;30.75;15.70;;;;;;;29.35;45.73;98513.28;4882579;29;20053;-62
2022/11/03 11:17:38;;;;;;;43.25;17.35;;;;;;;29.24;46.22;98518.47;4889935;29;20089;-61
2022/11/03 11:20:41;;;;;;;49.40;18.02;;;;;;;29.09;47.41;98528.19;4890645;29;20062;-63
2022/11/03 11:23:28;;;;;;;40.88;20.10;;;;;;;29.04;46.32;98520.13;4875616;29;20524;-63
2022/11/03 11:26:28;;;;;;;39.47;18.77;;;;;;;29.00;45.41;98528.28;4880841;29;20053;-63
2022/11/03 11:29:19;;;;;;;41.33;17.13;;;;;;;28.87;46.22;98521.91;4890430;29;20060;-63
2022/11/03 11:32:38;;;;;;;30.98;17.02;;;;;;;28.88;46.85;98522.72;4890255;29;20044;-61
2022/11/03 11:35:28;;;;;;;37.25;17.48;;;;;;;28.74;46.69;98530.47;4853185;29;20068;-62
2022/11/03 11:38:54;;;;;;;40.65;19.10;;;;;;;28.67;48.06;98531.03;4853639;29;20156;-62
2022/11/03 11:42:22;;;;;;;33.67;18.45;;;;;;;28.48;48.33;98531.50;4867138;29;20059;-62
2022/11/03 11:45:55;;;;;;;36.15;18.52;;;;;;;28.41;47.70;98532.03;4853474;29;20157;-64
2022/11/03 11:48:45;;;;;;;34.53;18.40;;;;;;;28.29;48.19;98524.50;4853546;29;20489;-63
2022/11/03 11:51:36;;;;;;;;;;;;;;;28.37;48.30;98524.75;4859535;29;20048;-63
2022/11/03 11:54:27;;;;;;;40.70;19.02;;;;;;;28.21;48.49;98522.63;4862814;29;19935;-63
2022/11/03 11:57:21;;;;;;;50.30;19.33;;;;;;;28.19;48.94;98527.66;4853327;29;20152;-63
2022/11/03 12:00:13;;;;;;;44.03;20.27;;;;;;;28.05;50.89;98516.88;4856552;29;20056;-63
2022/11/03 12:02:59;;;;;;;44.63;19.65;;;;;;;28.01;50.97;98524.22;4870529;29;20061;-63
2022/11/03 12:05:56;;;;;;;55.92;19.77;;;;;;;27.83;52.38;98528.97;4872266;29;20493;-63
2022/11/03 12:08:43;;;;;;;63.50;20.38;;;;;;;27.70;51.44;98536.34;4853464;29;20085;-63
2022/11/03 12:11:54;;;;;;;53.20;20.33;;;;;;;27.80;51.25;98539.88;4869785;29;20135;-62
2022/11/03 12:14:39;;;;;;;67.25;22.02;;;;;;;27.63;51.54;98533.31;4866139;29;20498;-63
2022/11/03 12:17:31;;;;;;;57.97;21.00;;;;;;;27.66;51.01;98535.38;4863045;29;20064;-62
2022/11/03 12:20:50;;;;;;;49.92;21.13;;;;;;;27.59;51.90;98534.28;4863906;29;20552;-62
2022/11/03 12:23:44;;;;;;;45.80;21.25;;;;;;;27.53;51.49;98536.44;4852417;29;20057;-61
2022/11/03 12:26:35;;;;;;;57.15;22.27;;;;;;;27.44;52.03;98542.00;4864822;29;20050;-61
2022/11/03 12:29:17;;;;;;;55.53;23.63;;;;;;;27.38;51.98;98545.25;4852123;29;20117;-61
2022/11/03 12:32:06;;;;;;;54.22;22.08;;;;;;;27.30;53.12;98547.69;4851554;29;20059;-60
2022/11/03 12:35:10;;;;;;;51.22;21.30;;;;;;;27.30;53.46;98555.16;4832931;29;20505;-61
2022/11/03 12:37:58;;;;;;;51.63;22.58;;;;;;;27.22;54.22;98559.53;4850489;29;20077;-61
2022/11/03 12:40:47;;;;;;;67.50;22.63;;;;;;;26.98;54.65;98559.25;4845951;29;20051;-61
2022/11/03 12:43:29;;;;;;;52.25;21.90;;;;;;;26.89;55.29;98564.78;4886205;29;20060;-61
2022/11/03 12:46:26;;;;;;;56.05;23.65;;;;;;;26.79;55.64;98567.84;4871180;29;20104;-60
2022/11/03 12:49:02;;;;;;;59.20;23.45;;;;;;;26.90;54.54;98577.41;4893534;29;20079;-61
2022/11/03 12:51:50;;;;;;;66.15;25.65;;;;;;;26.99;52.84;98586.47;4883192;29;20157;-60
2022/11/03 12:54:47;;;;;;;70.32;25.25;;;;;;;26.89;54.25;98584.84;4874208;29;20049;-59
2022/11/03 12:57:29;;;;;;;71.55;24.65;;;;;;;26.74;54.22;98582.59;4862463;29;20167;-60
2022/11/03 13:00:19;;;;;;;71.35;24.98;;;;;;;26.73;55.02;98581.78;4871103;29;20053;-60
2022/11/03 13:03:01;;;;;;;62.33;24.58;;;;;;;26.53;56.89;98583.19;4871864;29;20144;-64
2022/11/03 13:05:50;;;;;;;57.58;23.73;;;;;;;26.60;56.70;98599.28;4869423;29;20061;-61
2022/11/03 13:08:33;;;;;;;79.45;25.23;;;;;;;26.49;56.94;98598.75;4870382;29;20431;-61
2022/11/03 13:14:25;;;;;;;57.95;24.88;;;;;;;26.48;57.45;98602.66;4872299;29;20100;-60
2022/11/03 13:17:14;;;;;;;54.58;24.15;;;;;;;26.40;57.19;98605.38;4852863;29;20468;-60
2022/11/03 13:19:56;;;;;;;61.72;26.20;;;;;;;26.40;57.52;98605.38;4868766;29;20052;-61
2022/11/03 13:22:47;;;;;;;74.30;26.05;;;;;;;26.39;58.11;98615.56;4869760;29;20090;-61
2022/11/03 13:25:36;;;;;;;64.38;25.15;;;;;;;26.45;58.07;98619.00;4869211;29;20068;-61
2022/11/03 13:28:24;;;;;;;69.07;28.55;;;;;;;26.40;58.28;98610.88;4870126;29;20064;-61
2022/11/03 13:31:06;;;;;;;63.72;27.52;;;;;;;26.32;58.68;98618.78;4869015;29;20753;-63
2022/11/03 13:33:55;;;;;;;66.65;29.67;;;;;;;26.27;58.63;98618.97;4870646;29;20063;-63